createdAt,value
2023-01-07T00:02:12.303Z,20.90
2023-01-07T00:04:41.053Z,21.60
2023-01-07T00:07:12.072Z,21.10
2023-01-07T00:09:43.376Z,21.70
2023-01-07T00:12:12.172Z,22.30
2023-01-07T00:14:43.609Z,23.40
2023-01-07T00:17:12.593Z,24.10
2023-01-07T00:19:41.343Z,25.50
2023-01-07T00:22:10.196Z,23.10
2023-01-07T00:24:38.877Z,24.70
2023-01-07T00:27:07.468Z,24.50
2023-01-07T00:29:36.226Z,21.40
2023-01-07T00:32:05.351Z,21.30
2023-01-07T00:34:34.689Z,22.30
2023-01-07T00:37:38.301Z,21.10
2023-01-07T00:40:08.528Z,22.10
2023-01-07T00:42:55.091Z,19.80
2023-01-07T00:45:25.891Z,17.20
2023-01-07T00:47:54.451Z,17.80
2023-01-07T00:50:26.110Z,19.80
2023-01-07T00:52:55.932Z,20.70
2023-01-07T00:55:25.513Z,35.90
2023-01-07T00:57:55.646Z,22.80
2023-01-07T01:00:25.971Z,29.30
2023-01-07T01:02:54.965Z,21.30
2023-01-07T01:05:23.698Z,20.20
2023-01-07T01:07:52.677Z,23.00
2023-01-07T01:10:21.299Z,23.90
2023-01-07T01:12:51.133Z,20.20
2023-01-07T01:15:20.355Z,21.90
2023-01-07T01:17:51.837Z,17.70
2023-01-07T01:20:21.037Z,20.90
2023-01-07T01:22:49.860Z,22.30
2023-01-07T01:25:18.488Z,18.10
2023-01-07T01:27:47.214Z,21.10
2023-01-07T01:30:16.087Z,20.90
2023-01-07T01:32:50.416Z,24.40
2023-01-07T01:35:19.061Z,23.30
2023-01-07T01:37:47.737Z,20.70
2023-01-07T01:42:47.559Z,20.00
2023-01-07T01:45:20.616Z,25.10
2023-01-07T01:50:39.074Z,18.90
2023-01-07T01:56:19.777Z,17.90
2023-01-07T01:58:57.651Z,24.30
2023-01-07T02:01:27.437Z,24.60
2023-01-07T02:03:57.919Z,21.40
2023-01-07T02:06:31.877Z,18.90
2023-01-07T02:09:02.967Z,20.30
2023-01-07T02:12:06.884Z,24.30
2023-01-07T02:15:36.148Z,20.30
2023-01-07T02:18:48.915Z,21.80
2023-01-07T02:21:29.404Z,22.50
2023-01-07T02:24:38.384Z,27.70
2023-01-07T02:27:29.690Z,25.40
2023-01-07T02:30:40.344Z,26.40
2023-01-07T02:33:33.293Z,24.20
2023-01-07T02:36:19.655Z,23.90
2023-01-07T02:39:16.017Z,25.50
2023-01-07T02:41:57.004Z,25.10
2023-01-07T02:47:09.887Z,28.20
2023-01-07T02:49:38.554Z,26.60
2023-01-07T02:52:22.888Z,28.30
2023-01-07T02:55:10.642Z,27.40
2023-01-07T02:58:11.335Z,23.30
2023-01-07T03:01:38.192Z,27.00
2023-01-07T03:04:26.117Z,27.30
2023-01-07T03:07:43.797Z,23.10
2023-01-07T03:10:36.991Z,25.80
2023-01-07T03:13:26.961Z,21.10
2023-01-07T03:16:26.491Z,20.00
2023-01-07T03:19:05.984Z,22.40
2023-01-07T03:21:36.265Z,26.10
2023-01-07T03:24:06.850Z,23.20
2023-01-07T03:26:46.227Z,21.50
2023-01-07T03:29:16.782Z,23.40
2023-01-07T03:32:14.316Z,26.00
2023-01-07T03:34:44.046Z,23.80
2023-01-07T03:37:20.329Z,26.50
2023-01-07T03:39:50.310Z,21.60
2023-01-07T03:42:40.070Z,17.90
2023-01-07T03:45:13.620Z,19.70
2023-01-07T03:50:20.046Z,19.60
2023-01-07T03:52:49.698Z,18.60
2023-01-07T03:55:19.432Z,20.70
2023-01-07T03:57:48.701Z,18.10
2023-01-07T04:00:18.934Z,21.10
2023-01-07T04:02:52.438Z,18.00
2023-01-07T04:05:27.866Z,15.80
2023-01-07T04:07:56.779Z,21.50
2023-01-07T04:10:25.805Z,23.40
2023-01-07T04:12:54.648Z,20.10
2023-01-07T04:15:24.439Z,18.20
2023-01-07T04:17:53.007Z,19.80
2023-01-07T04:20:21.788Z,15.50
2023-01-07T04:22:50.552Z,21.40
2023-01-07T04:25:19.978Z,21.00
2023-01-07T04:27:49.666Z,16.20
2023-01-07T04:30:18.825Z,16.90
2023-01-07T04:32:48.243Z,16.30
2023-01-07T04:35:17.688Z,16.70
2023-01-07T04:37:47.090Z,17.60
2023-01-07T04:40:16.293Z,16.10
2023-01-07T04:42:45.764Z,16.60
2023-01-07T04:45:14.578Z,18.10
2023-01-07T04:47:43.606Z,16.50
2023-01-07T04:50:12.289Z,21.10
2023-01-07T04:52:41.724Z,15.90
2023-01-07T04:55:11.863Z,16.20
2023-01-07T04:57:41.483Z,14.50
2023-01-07T05:00:11.784Z,16.20
2023-01-07T05:02:41.637Z,14.20
2023-01-07T05:05:11.032Z,14.90
2023-01-07T05:07:40.201Z,16.10
2023-01-07T05:10:10.548Z,13.20
2023-01-07T05:12:40.170Z,13.30
2023-01-07T05:15:11.441Z,13.50
2023-01-07T05:17:41.908Z,14.80
2023-01-07T05:20:11.672Z,15.40
2023-01-07T05:22:40.569Z,16.70
2023-01-07T05:25:10.606Z,15.10
2023-01-07T05:27:39.595Z,16.10
2023-01-07T05:30:11.115Z,17.20
2023-01-07T05:32:40.219Z,14.40
2023-01-07T05:35:09.362Z,17.90
2023-01-07T05:37:38.265Z,15.50
2023-01-07T05:40:10.592Z,13.70
2023-01-07T05:42:39.783Z,15.30
2023-01-07T05:45:09.588Z,17.60
2023-01-07T05:47:38.597Z,15.00
2023-01-07T05:50:09.519Z,18.80
2023-01-07T05:52:39.157Z,17.30
2023-01-07T05:55:08.987Z,11.70
2023-01-07T05:57:39.222Z,11.60
2023-01-07T06:00:11.144Z,12.30
2023-01-07T06:02:45.636Z,14.30
2023-01-07T06:05:15.653Z,15.50
2023-01-07T06:07:45.506Z,14.90
2023-01-07T06:10:15.473Z,13.40
2023-01-07T06:12:44.866Z,12.60
2023-01-07T06:15:14.109Z,15.60
2023-01-07T06:17:43.703Z,14.20
2023-01-07T06:20:16.323Z,13.20
2023-01-07T06:22:46.078Z,16.80
2023-01-07T06:25:15.662Z,12.90
2023-01-07T06:27:45.646Z,17.80
2023-01-07T06:30:15.261Z,16.60
2023-01-07T06:32:45.350Z,18.90
2023-01-07T06:35:14.665Z,19.20
2023-01-07T06:37:43.678Z,14.40
2023-01-07T06:40:13.286Z,16.50
2023-01-07T06:42:44.397Z,14.70
2023-01-07T06:47:43.869Z,13.90
2023-01-07T06:50:13.795Z,12.90
2023-01-07T06:52:42.842Z,12.60
2023-01-07T06:55:12.842Z,17.20
2023-01-07T06:57:42.586Z,13.30
2023-01-07T07:00:13.801Z,12.40
2023-01-07T07:02:43.411Z,12.30
2023-01-07T07:05:19.760Z,14.20
2023-01-07T07:07:50.753Z,12.50
2023-01-07T07:10:20.509Z,13.00
2023-01-07T07:12:50.088Z,14.50
2023-01-07T07:15:20.544Z,21.90
2023-01-07T07:18:45.148Z,13.60
2023-01-07T07:21:14.381Z,15.10
2023-01-07T07:23:44.804Z,13.80
2023-01-07T07:26:13.921Z,14.50
2023-01-07T07:28:43.934Z,15.60
2023-01-07T07:31:17.157Z,13.50
2023-01-07T07:33:46.697Z,13.10
2023-01-07T07:36:40.474Z,11.60
2023-01-07T07:39:14.146Z,10.60
2023-01-07T07:41:45.178Z,12.10
2023-01-07T07:44:18.761Z,12.80
2023-01-07T07:46:48.640Z,14.20
2023-01-07T07:49:18.348Z,14.70
2023-01-07T07:51:48.322Z,13.80
2023-01-07T07:54:23.800Z,13.30
2023-01-07T07:56:53.833Z,12.00
2023-01-07T07:59:23.498Z,13.00
2023-01-07T08:01:52.891Z,15.10
2023-01-07T08:04:22.499Z,15.50
2023-01-07T08:06:52.375Z,14.20
2023-01-07T08:09:23.142Z,17.30
2023-01-07T08:11:53.747Z,14.10
2023-01-07T08:17:45.768Z,14.70
2023-01-07T08:20:19.845Z,15.80
2023-01-07T08:22:50.393Z,16.50
2023-01-07T08:25:19.820Z,21.00
2023-01-07T08:27:49.044Z,15.00
2023-01-07T08:30:18.844Z,15.00
2023-01-07T08:32:48.642Z,14.90
2023-01-07T08:35:18.918Z,17.40
2023-01-07T08:37:50.805Z,19.30
2023-01-07T08:40:20.207Z,18.70
2023-01-07T08:42:49.691Z,16.50
2023-01-07T08:45:21.161Z,15.80
2023-01-07T08:47:51.679Z,10.40
2023-01-07T08:50:26.867Z,17.30
2023-01-07T08:52:57.412Z,12.90
2023-01-07T08:55:26.826Z,15.20
2023-01-07T08:57:57.329Z,15.90
2023-01-07T09:00:27.259Z,19.80
2023-01-07T09:02:56.660Z,12.10
2023-01-07T09:05:26.540Z,16.10
2023-01-07T09:07:56.225Z,14.60
2023-01-07T09:10:26.013Z,15.70
2023-01-07T09:12:55.706Z,15.80
2023-01-07T09:17:56.300Z,13.30
2023-01-07T09:20:26.518Z,13.70
2023-01-07T09:22:55.924Z,13.60
2023-01-07T09:25:25.898Z,16.90
2023-01-07T09:27:55.972Z,16.60
2023-01-07T09:30:31.068Z,16.40
2023-01-07T09:33:01.037Z,14.40
2023-01-07T09:35:30.222Z,17.20
2023-01-07T09:38:05.530Z,17.40
2023-01-07T09:40:48.929Z,15.50
2023-01-07T09:44:00.387Z,19.10
2023-01-07T09:46:32.825Z,15.60
2023-01-07T09:49:04.239Z,13.10
2023-01-07T09:51:42.766Z,14.90
2023-01-07T09:54:36.404Z,18.70
2023-01-07T09:57:06.120Z,15.20
2023-01-07T09:59:36.608Z,18.10
2023-01-07T10:02:31.618Z,16.30
2023-01-07T10:09:28.758Z,11.20
2023-01-07T10:12:12.893Z,17.80
2023-01-07T10:15:15.714Z,15.30
2023-01-07T10:18:37.730Z,14.00
2023-01-07T10:21:48.146Z,12.30
2023-01-07T10:24:59.784Z,14.70
2023-01-07T10:27:41.252Z,13.70
2023-01-07T10:30:26.764Z,13.40
2023-01-07T10:33:26.352Z,15.40
2023-01-07T10:36:33.834Z,14.30
2023-01-07T10:39:51.779Z,11.50
2023-01-07T10:46:20.942Z,14.80
2023-01-07T10:49:17.936Z,20.30
2023-01-07T10:51:54.367Z,18.50
2023-01-07T10:54:55.638Z,14.80
2023-01-07T10:57:29.674Z,13.50
2023-01-07T11:00:06.258Z,12.80
2023-01-07T11:02:37.828Z,15.00
2023-01-07T11:05:09.098Z,18.70
2023-01-07T11:10:34.084Z,15.80
2023-01-07T11:13:31.239Z,15.80
2023-01-07T11:16:22.138Z,19.40
2023-01-07T11:19:12.520Z,13.40
2023-01-07T11:21:50.477Z,17.50
2023-01-07T11:24:35.235Z,12.80
2023-01-07T11:27:15.132Z,13.40
2023-01-07T11:30:16.392Z,15.50
2023-01-07T11:33:04.221Z,19.10
2023-01-07T11:47:18.238Z,28.00
2023-01-07T11:50:34.973Z,14.80
2023-01-07T11:53:16.996Z,15.50
2023-01-07T11:56:12.492Z,17.10
2023-01-07T11:58:47.606Z,15.30
2023-01-07T12:01:24.660Z,17.40
2023-01-07T12:03:53.633Z,17.60
2023-01-07T12:06:33.675Z,18.30
2023-01-07T12:09:33.109Z,22.10
2023-01-07T12:12:35.182Z,19.70
2023-01-07T12:15:28.378Z,25.70
2023-01-07T12:18:26.309Z,19.10
2023-01-07T12:21:16.339Z,16.50
2023-01-07T12:24:32.083Z,17.80
2023-01-07T12:27:18.211Z,15.50
2023-01-07T12:30:15.089Z,18.00
2023-01-07T12:33:06.589Z,17.90
2023-01-07T12:38:26.849Z,16.10
2023-01-07T12:41:06.508Z,17.90
2023-01-07T12:43:52.951Z,15.50
2023-01-07T12:46:24.279Z,17.00
2023-01-07T12:49:17.425Z,18.40
2023-01-07T12:52:07.585Z,18.10
2023-01-07T12:54:57.218Z,18.00
2023-01-07T12:57:31.981Z,16.30
2023-01-07T13:00:17.024Z,17.80
